Scout — SCOUT — position and weather

sailwx.info

Track history (hours):
 
Tides and Currents Weather Stations Pressure Air Temp Water Temp Dewpoint Dewpoint Depression Visibility Wind Speed Wind Dir Waves Ship Positions

Scout

Last reported at 2018-Jun-21 18:52 UTC. Time now 2018-Jun-22 13:26 UTC.
Position N 50°51' W 127°40'.

Length 13 m.

Type: Pleasure craft. MMSI: 316017359.

Date/timePositionNaut miles runAvg speedWind from/ knotsBaromVisibWave heightAir tempDewpointWater temp
2018-Jun-21 18:52N 50°51' W 127°40'2 5.0
2018-Jun-21 18:31N 50°50' W 127°39'37 5.9
2018-Jun-21 12:13N 51°27' W 127°48'1 6.9
2018-Jun-21 12:00N 51°28' W 127°47'1 0.1
2018-Jun-20 18:15N 51°29' W 127°46'1 3.4
2018-Jun-20 17:59N 51°28' W 127°45'2 4.2
2018-Jun-20 17:29N 51°28' W 127°41'2 0.1
2018-Jun-19 22:45N 51°30' W 127°43'1 3.8
2018-Jun-19 22:26N 51°31' W 127°41'3 7.3
2018-Jun-19 22:00N 51°31' W 127°47'3 5.6
2018-Jun-19 21:30N 51°33' W 127°48'3 6.3
2018-Jun-19 21:00N 51°36' W 127°48'3 1.4
2018-Jun-19 18:52N 51°39' W 127°46'2 5.3
2018-Jun-19 18:30N 51°37' W 127°46'3 5.7
2018-Jun-19 18:00N 51°38' W 127°50'1 2.9
2018-Jun-19 17:30N 51°38' W 127°52'3 6.9
2018-Jun-19 17:00N 51°39' W 127°57'3 6.5
2018-Jun-19 16:30N 51°39' W 128°03'3 0.1
2018-Jun-17 20:08N 51°39' W 128°08'0 3.1
2018-Jun-17 20:00N 51°39' W 128°07'3 6.0
2018-Jun-17 19:30N 51°42' W 128°04'3 6.1
2018-Jun-17 19:00N 51°45' W 128°03'2 4.8
2018-Jun-17 18:30N 51°47' W 128°04'3 6.6
2018-Jun-17 18:00N 51°49' W 128°09'3 5.9
2018-Jun-17 17:30N 51°51' W 128°11'0 0.0
2018-Jun-15 23:31N 51°52' W 128°10'0 0.2
2018-Jun-15 23:30N 51°52' W 128°10'1 2.1
2018-Jun-15 23:00N 51°51' W 128°10'1 2.4
2018-Jun-15 22:30N 51°50' W 128°12'1 1.9
2018-Jun-15 22:00N 51°51' W 128°13'1 2.3
2018-Jun-15 21:30N 51°52' W 128°12'0 0.7
2018-Jun-15 21:00N 51°52' W 128°13'3 5.2
2018-Jun-15 20:30N 51°54' W 128°16'3 5.5
2018-Jun-15 19:59N 51°55' W 128°12'3 6.7
2018-Jun-15 19:30N 51°58' W 128°12'3 6.9
2018-Jun-15 19:00N 52°02' W 128°10'2 0.1
2018-Jun-14 23:16N 52°03' W 128°08'2 7.0
2018-Jun-14 22:57N 52°06' W 128°08'11 2.8
2018-Jun-14 19:07N 52°16' W 128°08'  
2018-Jun-11 21:08N 52°14' W 127°49'  
Track history (hours):
 
Tides and Currents Weather Stations Pressure Air Temp Water Temp Dewpoint Dewpoint Depression Visibility Wind Speed Wind Dir Waves Ship Positions

Scout

Last reported at 2018-Jun-21 18:52 UTC. Time now 2018-Jun-22 13:26 UTC.
Position N 50°51' W 127°40'.

Length 13 m.

Type: Pleasure craft. MMSI: 316017359.

Date/timePositionNaut miles runAvg speedWind from/ knotsBaromVisibWave heightAir tempDewpointWater temp
2018-Jun-21 18:52N 50°51' W 127°40'2 5.0
2018-Jun-21 18:31N 50°50' W 127°39'37 5.9
2018-Jun-21 12:13N 51°27' W 127°48'1 6.9
2018-Jun-21 12:00N 51°28' W 127°47'1 0.1
2018-Jun-20 18:15N 51°29' W 127°46'1 3.4
2018-Jun-20 17:59N 51°28' W 127°45'2 4.2
2018-Jun-20 17:29N 51°28' W 127°41'2 0.1
2018-Jun-19 22:45N 51°30' W 127°43'1 3.8
2018-Jun-19 22:26N 51°31' W 127°41'3 7.3
2018-Jun-19 22:00N 51°31' W 127°47'3 5.6
2018-Jun-19 21:30N 51°33' W 127°48'3 6.3
2018-Jun-19 21:00N 51°36' W 127°48'3 1.4
2018-Jun-19 18:52N 51°39' W 127°46'2 5.3
2018-Jun-19 18:30N 51°37' W 127°46'3 5.7
2018-Jun-19 18:00N 51°38' W 127°50'1 2.9
2018-Jun-19 17:30N 51°38' W 127°52'3 6.9
2018-Jun-19 17:00N 51°39' W 127°57'3 6.5
2018-Jun-19 16:30N 51°39' W 128°03'3 0.1
2018-Jun-17 20:08N 51°39' W 128°08'0 3.1
2018-Jun-17 20:00N 51°39' W 128°07'3 6.0
2018-Jun-17 19:30N 51°42' W 128°04'3 6.1
2018-Jun-17 19:00N 51°45' W 128°03'2 4.8
2018-Jun-17 18:30N 51°47' W 128°04'3 6.6
2018-Jun-17 18:00N 51°49' W 128°09'3 5.9
2018-Jun-17 17:30N 51°51' W 128°11'0 0.0
2018-Jun-15 23:31N 51°52' W 128°10'0 0.2
2018-Jun-15 23:30N 51°52' W 128°10'1 2.1
2018-Jun-15 23:00N 51°51' W 128°10'1 2.4
2018-Jun-15 22:30N 51°50' W 128°12'1 1.9
2018-Jun-15 22:00N 51°51' W 128°13'1 2.3
2018-Jun-15 21:30N 51°52' W 128°12'0 0.7
2018-Jun-15 21:00N 51°52' W 128°13'3 5.2
2018-Jun-15 20:30N 51°54' W 128°16'3 5.5
2018-Jun-15 19:59N 51°55' W 128°12'3 6.7
2018-Jun-15 19:30N 51°58' W 128°12'3 6.9
2018-Jun-15 19:00N 52°02' W 128°10'2 0.1
2018-Jun-14 23:16N 52°03' W 128°08'2 7.0
2018-Jun-14 22:57N 52°06' W 128°08'11 2.8
2018-Jun-14 19:07N 52°16' W 128°08'  
2018-Jun-11 21:08N 52°14' W 127°49'  

Dump ship's entire track history